createdAt,value
2023-05-20T00:00:17.128Z,16.00
2023-05-20T00:12:17.610Z,15.00
2023-05-20T00:24:18.106Z,15.40
2023-05-20T00:36:18.496Z,15.10
2023-05-20T00:48:19.322Z,15.00
2023-05-20T01:00:19.396Z,14.00
2023-05-20T01:12:19.858Z,14.80
2023-05-20T01:24:20.315Z,15.70
2023-05-20T01:36:20.774Z,16.20
2023-05-20T01:48:21.227Z,15.80
2023-05-20T02:00:21.673Z,17.00
2023-05-20T02:12:22.122Z,18.90
2023-05-20T02:24:22.595Z,17.60
2023-05-20T02:36:23.071Z,17.30
2023-05-20T02:48:23.487Z,15.90
2023-05-20T03:00:23.946Z,17.80
2023-05-20T03:12:24.555Z,18.30
2023-05-20T03:24:24.834Z,19.40
2023-05-20T03:36:25.312Z,18.90
2023-05-20T03:48:25.781Z,17.80
2023-05-20T04:00:26.207Z,16.60
2023-05-20T04:12:26.632Z,17.00
2023-05-20T04:24:27.120Z,16.90
2023-05-20T04:36:27.551Z,12.80
2023-05-20T04:48:28.037Z,12.30
2023-05-20T05:00:28.466Z,10.90
2023-05-20T05:12:28.921Z,10.10
2023-05-20T05:24:29.386Z,9.40
2023-05-20T05:36:29.819Z,8.80
2023-05-20T05:48:30.260Z,9.00
2023-05-20T06:00:30.740Z,8.30
2023-05-20T06:12:31.198Z,7.50
2023-05-20T06:24:31.666Z,8.10
2023-05-20T06:36:33.691Z,6.90
2023-05-20T06:48:32.571Z,7.50
2023-05-20T07:00:33.017Z,7.50
2023-05-20T07:12:36.091Z,7.30
2023-05-20T07:24:33.914Z,6.80
2023-05-20T07:36:34.372Z,7.20
2023-05-20T07:48:34.812Z,8.00
2023-05-20T08:00:35.280Z,8.60
2023-05-20T08:12:35.719Z,8.10
2023-05-20T08:24:36.183Z,9.20
2023-05-20T08:36:36.650Z,9.70
2023-05-20T08:48:37.129Z,9.80
2023-05-20T09:00:37.571Z,10.10
2023-05-20T09:12:38.005Z,11.10
2023-05-20T09:24:38.484Z,10.80
2023-05-20T09:36:38.930Z,8.10
2023-05-20T09:48:39.355Z,8.80
2023-05-20T10:00:39.854Z,9.00
2023-05-20T10:12:40.264Z,8.60
2023-05-20T10:24:40.874Z,8.20
2023-05-20T10:36:42.803Z,8.20
2023-05-20T10:48:41.736Z,8.20
2023-05-20T11:00:42.140Z,8.00
2023-05-20T11:12:42.618Z,8.30
2023-05-20T11:24:43.133Z,8.10
2023-05-20T11:36:43.497Z,9.00
2023-05-20T11:48:43.912Z,8.00
2023-05-20T12:00:51.703Z,8.60
2023-05-20T12:12:44.862Z,8.50
2023-05-20T12:24:45.317Z,8.40
2023-05-20T12:36:45.723Z,8.50
2023-05-20T12:48:46.184Z,7.90
2023-05-20T13:00:46.680Z,7.60
2023-05-20T13:12:47.111Z,7.80
2023-05-20T13:24:47.552Z,7.50
2023-05-20T13:36:48.040Z,7.50
2023-05-20T13:48:48.479Z,7.30
2023-05-20T14:00:48.955Z,7.30
2023-05-20T14:12:49.386Z,6.50
2023-05-20T14:24:49.839Z,8.40
2023-05-20T14:36:50.332Z,10.30
2023-05-20T14:48:50.767Z,7.40
2023-05-20T15:00:51.287Z,7.00
2023-05-20T15:12:51.661Z,6.60
2023-05-20T15:24:52.132Z,7.40
2023-05-20T15:48:53.059Z,9.10
2023-05-20T16:00:53.555Z,6.80
2023-05-20T16:12:53.952Z,6.40
2023-05-20T16:24:54.434Z,6.70
2023-05-20T16:36:54.899Z,7.20
2023-05-20T16:48:55.338Z,7.30
2023-05-20T17:00:55.822Z,7.90
2023-05-20T17:12:56.286Z,7.50
2023-05-20T17:24:56.745Z,8.30
2023-05-20T17:36:57.193Z,9.80
2023-05-20T17:48:57.573Z,10.10
2023-05-20T18:00:58.092Z,12.30
2023-05-20T18:12:58.522Z,12.40
2023-05-20T18:24:58.967Z,12.70
2023-05-20T18:36:59.457Z,14.50
2023-05-20T18:48:59.897Z,15.10
2023-05-20T19:01:00.361Z,15.60
2023-05-20T19:13:00.787Z,17.40
2023-05-20T19:25:01.253Z,17.00
2023-05-20T19:37:01.739Z,19.10
2023-05-20T19:49:02.177Z,20.90
2023-05-20T20:01:02.610Z,22.70
2023-05-20T20:13:03.064Z,22.20
2023-05-20T20:25:03.552Z,21.20
2023-05-20T20:37:03.988Z,21.60
2023-05-20T20:49:04.445Z,23.70
2023-05-20T21:01:04.919Z,24.60
2023-05-20T21:13:05.366Z,24.80
2023-05-20T21:25:05.781Z,24.10
2023-05-20T21:37:06.242Z,24.60
2023-05-20T21:49:06.692Z,25.60
2023-05-20T22:01:07.235Z,24.50
2023-05-20T22:13:07.604Z,23.40
2023-05-20T22:25:08.104Z,24.70
2023-05-20T22:37:08.545Z,25.00
2023-05-20T22:49:08.962Z,24.60
2023-05-20T23:01:09.461Z,24.60
2023-05-20T23:13:09.878Z,24.70
2023-05-20T23:25:10.381Z,24.50
2023-05-20T23:37:10.826Z,23.50
2023-05-20T23:49:11.223Z,24.00
